Time;durP1;ratioP1;P1;durP2;ratioP2;P2;SDS_P1;SDS_P2;PMS_P1;PMS_P2;Temp;Humidity;BMP_temperature;BMP_pressure;BME280_temperature;BME280_humidity;BME280_pressure;Samples;Min_cycle;Max_cycle;Signal;HPM_P1;HPM_P2
2023/08/13 00:02:24;;;;;;;1.20;0.90;;;;;;;16.52;100.00;100289.84;4809616;29;20034;-94
2023/08/13 00:04:49;;;;;;;1.23;0.63;;;;;;;16.37;100.00;100283.38;4793572;29;20114;-94
2023/08/13 00:07:15;;;;;;;1.58;1.23;;;;;;;16.19;100.00;100283.41;4795232;29;20054;-94
2023/08/13 00:09:41;;;;;;;0.82;0.77;;;;;;;16.23;100.00;100290.38;4812603;29;20576;-94
2023/08/13 00:12:06;;;;;;;0.30;0.30;;;;;;;16.14;100.00;100292.41;4794863;29;20046;-95
2023/08/13 00:14:32;;;;;;;0.38;0.32;;;;;;;16.12;100.00;100290.09;4817863;29;20431;-94
2023/08/13 00:16:58;;;;;;;1.75;0.90;;;;;;;15.98;100.00;100270.38;4795941;29;20042;-95
2023/08/13 00:19:24;;;;;;;0.60;0.60;;;;;;;15.93;100.00;100259.81;4802114;29;20051;-95
2023/08/13 00:21:49;;;;;;;3.50;0.98;;;;;;;15.89;100.00;100265.59;4818484;29;20050;-96
2023/08/13 00:24:15;;;;;;;0.98;0.65;;;;;;;15.92;100.00;100261.06;4807599;29;20488;-94
2023/08/13 00:26:42;;;;;;;0.55;0.32;;;;;;;15.90;100.00;100257.94;4811540;29;20072;-96
2023/08/13 00:29:08;;;;;;;0.28;0.28;;;;;;;15.93;100.00;100265.41;4810496;29;20061;-94
2023/08/13 00:31:34;;;;;;;0.60;0.60;;;;;;;15.99;100.00;100269.13;4823664;29;20062;-95
2023/08/13 00:34:00;;;;;;;1.38;1.27;;;;;;;15.96;100.00;100261.69;4793661;29;20074;-96
2023/08/13 00:36:26;;;;;;;1.25;1.15;;;;;;;16.16;100.00;100284.34;4823791;29;20046;-94
2023/08/13 00:38:51;;;;;;;0.40;0.40;;;;;;;16.20;100.00;100284.94;4809473;29;20390;-93
2023/08/13 00:41:17;;;;;;;0.65;0.60;;;;;;;16.14;100.00;100272.81;4808677;29;20749;-92
2023/08/13 00:43:43;;;;;;;0.50;0.50;;;;;;;16.14;100.00;100276.41;4809622;29;20042;-92
2023/08/13 00:46:09;;;;;;;0.95;0.93;;;;;;;16.15;100.00;100274.38;4822543;29;20050;-92
2023/08/13 00:48:39;;;;;;;0.25;0.25;;;;;;;16.27;100.00;100295.81;4792292;29;20049;-92
2023/08/13 00:51:06;;;;;;;1.23;0.75;;;;;;;16.15;100.00;100277.19;4804783;29;20118;-92
2023/08/13 00:53:35;;;;;;;1.65;0.75;;;;;;;16.12;100.00;100266.94;4809407;29;20581;-95
2023/08/13 00:56:01;;;;;;;1.08;0.93;;;;;;;16.14;100.00;100264.44;4832804;29;20436;-95
2023/08/13 00:58:26;;;;;;;26.20;1.05;;;;;;;16.38;100.00;100304.50;4806075;29;20077;-94
2023/08/13 01:03:36;;;;;;;1.75;0.88;;;;;;;16.40;100.00;100292.84;4858233;24;20074;-90
2023/08/13 01:06:27;;;;;;;0.77;0.55;;;;;;;16.32;100.00;100298.78;4781688;29;20043;-90
2023/08/13 01:09:06;;;;;;;1.60;1.38;;;;;;;16.20;100.00;100287.75;4798755;29;20577;-90
2023/08/13 01:11:42;;;;;;;0.63;0.45;;;;;;;16.19;100.00;100300.97;4773534;29;20058;-91
2023/08/13 01:14:22;;;;;;;0.30;0.30;;;;;;;15.98;100.00;100301.13;4801107;29;20138;-90
2023/08/13 01:16:48;;;;;;;0.73;0.73;;;;;;;15.96;100.00;100292.44;4797075;29;20261;-90
2023/08/13 01:19:14;;;;;;;0.65;0.43;;;;;;;15.81;100.00;100272.72;4788268;29;20062;-90
2023/08/13 01:21:40;;;;;;;0.30;0.25;;;;;;;15.86;100.00;100283.28;4806798;29;20054;-90
2023/08/13 01:24:06;;;;;;;1.60;0.68;;;;;;;15.81;100.00;100287.47;4791590;29;20045;-90
2023/08/13 01:26:56;;;;;;;1.27;1.10;;;;;;;15.82;100.00;100289.03;4789253;29;20155;-90
2023/08/13 01:29:32;;;;;;;0.93;0.85;;;;;;;15.82;100.00;100283.44;4798952;29;20061;-90
2023/08/13 01:32:00;;;;;;;0.75;0.75;;;;;;;15.84;100.00;100286.56;4788513;29;20069;-92
2023/08/13 01:34:26;;;;;;;0.82;0.82;;;;;;;15.90;100.00;100288.72;4775061;29;20050;-90
2023/08/13 01:36:52;;;;;;;1.15;1.05;;;;;;;15.91;100.00;100290.28;4785978;29;20050;-90
2023/08/13 01:39:18;;;;;;;1.15;0.98;;;;;;;15.90;100.00;100283.91;4773975;29;20516;-90
2023/08/13 01:41:52;;;;;;;0.75;0.50;;;;;;;15.99;100.00;100288.72;4796245;29;20099;-90
2023/08/13 01:44:17;;;;;;;0.20;0.20;;;;;;;15.99;100.00;100291.50;4802102;29;20060;-91
2023/08/13 01:46:43;;;;;;;0.77;0.75;;;;;;;15.91;100.00;100279.88;4802841;29;20038;-90
2023/08/13 01:49:08;;;;;;;0.82;0.82;;;;;;;15.76;100.00;100274.13;4787387;29;20046;-90
2023/08/13 01:51:34;;;;;;;0.70;0.60;;;;;;;15.78;100.00;100282.03;4772926;29;20141;-90
2023/08/13 01:54:00;;;;;;;1.35;1.25;;;;;;;15.75;100.00;100280.97;4800693;29;20414;-91
2023/08/13 01:56:25;;;;;;;0.57;0.30;;;;;;;15.67;100.00;100276.91;4787425;29;20078;-91
2023/08/13 01:58:51;;;;;;;0.22;0.22;;;;;;;15.68;100.00;100281.28;4783463;29;20122;-91
2023/08/13 02:01:17;;;;;;;1.15;0.60;;;;;;;15.63;100.00;100287.47;4787345;29;20046;-90
2023/08/13 02:03:43;;;;;;;0.63;0.40;;;;;;;15.62;100.00;100277.53;4764355;29;20066;-90
2023/08/13 02:06:08;;;;;;;0.90;0.85;;;;;;;15.62;100.00;100257.97;4761243;29;20043;-90
2023/08/13 02:08:34;;;;;;;0.60;0.60;;;;;;;15.61;100.00;100256.41;4789081;29;20034;-89
2023/08/13 02:11:00;;;;;;;0.35;0.30;;;;;;;15.71;100.00;100259.97;4767569;29;20108;-90
2023/08/13 02:13:25;;;;;;;0.55;0.52;;;;;;;15.73;100.00;100258.25;4774095;29;20046;-91
2023/08/13 02:15:51;;;;;;;1.13;0.93;;;;;;;15.75;100.00;100277.38;4754806;30;20584;-90
2023/08/13 02:18:16;;;;;;;1.05;0.85;;;;;;;15.78;100.00;100265.25;4792938;29;20062;-90
2023/08/13 02:20:42;;;;;;;1.15;0.90;;;;;;;15.79;100.00;100275.22;4763842;29;20136;-90
2023/08/13 02:23:08;;;;;;;0.35;0.35;;;;;;;15.79;100.00;100267.59;4752052;29;20045;-91
2023/08/13 02:25:33;;;;;;;0.52;0.52;;;;;;;15.82;100.00;100265.88;4778123;29;20119;-91
2023/08/13 02:27:59;;;;;;;0.50;0.50;;;;;;;15.76;100.00;100262.94;4775277;29;20479;-91
2023/08/13 02:30:26;;;;;;;0.57;0.57;;;;;;;15.61;100.00;100262.00;4754115;29;20284;-91
2023/08/13 02:32:52;;;;;;;0.20;0.20;;;;;;;15.61;100.00;100256.41;4766249;29;20583;-91
2023/08/13 02:35:17;;;;;;;0.63;0.63;;;;;;;15.38;100.00;100235.41;4770058;29;20062;-90
2023/08/13 02:37:43;;;;;;;0.60;0.52;;;;;;;15.54;100.00;100261.53;4779589;29;20055;-91
2023/08/13 02:40:09;;;;;;;0.20;0.20;;;;;;;15.58;100.00;100265.72;4767141;29;20051;-91
2023/08/13 02:42:36;;;;;;;1.67;1.02;;;;;;;15.52;100.00;100261.22;4768598;29;20082;-91
2023/08/13 02:45:01;;;;;;;0.80;0.77;;;;;;;15.58;100.00;100256.56;4775985;29;20563;-90
2023/08/13 02:47:28;;;;;;;0.20;0.20;;;;;;;15.58;100.00;100254.53;4767888;29;20435;-91
2023/08/13 02:49:54;;;;;;;1.08;1.00;;;;;;;15.62;100.00;100274.75;4783004;29;20058;-90
2023/08/13 02:52:19;;;;;;;0.60;0.47;;;;;;;15.62;100.00;100269.16;4783897;29;20046;-91
2023/08/13 02:54:45;;;;;;;1.20;1.10;;;;;;;15.67;100.00;100285.31;4780314;29;20072;-90
2023/08/13 02:57:10;;;;;;;1.95;0.90;;;;;;;15.40;100.00;100240.56;4776263;29;20047;-91
2023/08/13 02:59:36;;;;;;;0.35;0.32;;;;;;;15.61;100.00;100256.41;4797332;29;20055;-90
2023/08/13 03:02:01;;;;;;;0.90;0.70;;;;;;;15.57;100.00;100253.00;4780005;29;20076;-91
2023/08/13 03:04:27;;;;;;;0.80;0.65;;;;;;;15.66;100.00;100269.00;4779096;29;20051;-90
2023/08/13 03:06:53;;;;;;;0.25;0.25;;;;;;;15.49;100.00;100243.31;4776842;29;20051;-91
2023/08/13 03:09:22;;;;;;;0.98;0.65;;;;;;;15.55;100.00;100258.28;4783221;29;20500;-91
2023/08/13 03:11:48;;;;;;;2.15;1.15;;;;;;;15.56;100.00;100268.22;4779834;29;20092;-90
2023/08/13 03:14:15;;;;;;;1.35;0.95;;;;;;;15.59;100.00;100286.88;4787398;29;20638;-91
2023/08/13 03:16:41;;;;;;;0.95;0.38;;;;;;;15.50;100.00;100261.69;4781003;29;20047;-90
2023/08/13 03:19:06;;;;;;;2.08;1.33;;;;;;;15.34;100.00;100247.97;4767205;29;20070;-91
2023/08/13 03:21:32;;;;;;;0.57;0.57;;;;;;;15.51;100.00;100280.03;4770059;29;20188;-91
2023/08/13 03:23:58;;;;;;;0.77;0.35;;;;;;;15.46;100.00;100277.81;4774261;29;20103;-90
2023/08/13 03:26:23;;;;;;;0.22;0.22;;;;;;;15.28;100.00;100258.25;4776271;29;20095;-90
2023/08/13 03:28:49;;;;;;;1.17;0.85;;;;;;;15.31;100.00;100260.09;4781786;29;20081;-90
2023/08/13 03:31:19;;;;;;;0.57;0.57;;;;;;;15.28;100.00;100250.63;4780015;29;20070;-89
2023/08/13 03:33:49;;;;;;;0.65;0.50;;;;;;;15.39;100.00;100281.69;4779616;29;20053;-91
2023/08/13 03:36:15;;;;;;;0.95;0.60;;;;;;;15.37;100.00;100275.00;4801614;29;20389;-90
2023/08/13 03:38:41;;;;;;;1.65;0.77;;;;;;;15.34;100.00;100264.75;4769968;29;20078;-91
2023/08/13 03:41:06;;;;;;;0.82;0.82;;;;;;;15.24;100.00;100255.59;4787491;29;20879;-91
2023/08/13 03:43:33;;;;;;;0.93;0.65;;;;;;;15.22;100.00;100262.88;4787105;29;20053;-90
2023/08/13 03:45:59;;;;;;;1.33;0.65;;;;;;;15.18;100.00;100256.66;4773068;29;20138;-90
2023/08/13 03:48:25;;;;;;;1.27;0.52;;;;;;;15.26;100.00;100275.47;4784940;29;20035;-91
2023/08/13 03:50:51;;;;;;;1.55;1.13;;;;;;;15.18;100.00;100265.81;4784918;29;20097;-90
2023/08/13 03:53:22;;;;;;;1.08;0.65;;;;;;;15.25;100.00;100268.31;4782520;30;20044;-90
2023/08/13 03:55:47;;;;;;;0.13;0.13;;;;;;;15.29;100.00;100273.75;4800619;29;20054;-90
2023/08/13 03:58:13;;;;;;;1.10;1.02;;;;;;;15.08;100.00;100253.09;4769235;29;20469;-90
2023/08/13 04:00:39;;;;;;;0.17;0.17;;;;;;;15.24;100.00;100288.34;4808168;29;20522;-91
2023/08/13 04:03:05;;;;;;;0.43;0.43;;;;;;;15.22;100.00;100277.63;4782923;29;20183;-90
2023/08/13 04:05:30;;;;;;;1.10;0.98;;;;;;;15.32;100.00;100284.03;4767795;30;20062;-90
2023/08/13 04:07:56;;;;;;;0.17;0.17;;;;;;;15.35;100.00;100278.28;4763274;29;20483;-89
2023/08/13 04:10:22;;;;;;;0.10;0.10;;;;;;;15.31;100.00;100277.66;4771398;29;20046;-90
2023/08/13 04:12:47;;;;;;;2.08;1.48;;;;;;;15.20;100.00;100254.19;4780245;29;20624;-91
2023/08/13 04:15:13;;;;;;;1.35;1.25;;;;;;;15.24;100.00;100266.78;4772605;29;20043;-90
2023/08/13 04:17:42;;;;;;;0.55;0.55;;;;;;;15.32;100.00;100272.84;4766543;29;20058;-91
2023/08/13 04:20:10;;;;;;;1.02;0.98;;;;;;;15.24;100.00;100266.00;4783287;29;20411;-90
2023/08/13 04:22:36;;;;;;;0.25;0.25;;;;;;;15.23;100.00;100256.81;4744484;30;20047;-91
2023/08/13 04:25:01;;;;;;;1.08;0.70;;;;;;;15.25;100.00;100267.53;4791776;29;20038;-90
2023/08/13 04:27:27;;;;;;;0.80;0.80;;;;;;;15.31;100.00;100293.63;4779183;29;20047;-89
2023/08/13 04:29:53;;;;;;;0.50;0.50;;;;;;;15.32;100.00;100281.22;4783549;29;20389;-90
2023/08/13 04:32:19;;;;;;;0.75;0.30;;;;;;;15.32;100.00;100287.59;4785873;29;20066;-90
2023/08/13 04:34:45;;;;;;;2.28;0.80;;;;;;;15.46;100.00;100305.75;4757459;29;20089;-90
2023/08/13 04:37:11;;;;;;;0.52;0.52;;;;;;;15.33;100.00;100279.97;4774212;29;20111;-89
2023/08/13 04:39:38;;;;;;;1.45;1.20;;;;;;;15.46;100.00;100294.59;4786199;29;20142;-90
2023/08/13 04:42:05;;;;;;;0.40;0.40;;;;;;;15.49;100.00;100299.25;4776878;29;20082;-91
2023/08/13 04:44:31;;;;;;;0.30;0.28;;;;;;;15.57;100.00;100306.09;4778780;29;20051;-91
2023/08/13 04:46:57;;;;;;;2.13;1.33;;;;;;;15.60;100.00;100288.44;4779663;29;20435;-91
2023/08/13 04:49:24;;;;;;;0.85;0.82;;;;;;;15.58;100.00;100296.50;4783895;29;20491;-90
2023/08/13 04:51:49;;;;;;;2.00;1.50;;;;;;;15.66;100.00;100303.31;4767815;29;20042;-90
2023/08/13 04:54:15;;;;;;;1.48;1.38;;;;;;;15.72;100.00;100298.69;4783705;29;20153;-90
2023/08/13 04:56:42;;;;;;;0.45;0.45;;;;;;;15.73;100.00;100297.41;4762307;29;20061;-90
2023/08/13 04:59:08;;;;;;;0.57;0.57;;;;;;;15.78;100.00;100302.41;4797519;29;20444;-91
2023/08/13 05:01:35;;;;;;;0.50;0.38;;;;;;;15.92;100.00;100300.22;4755813;29;20049;-90
2023/08/13 05:04:02;;;;;;;1.95;1.08;;;;;;;16.08;100.00;100300.69;4787338;29;20313;-91
2023/08/13 05:06:31;;;;;;;0.70;0.70;;;;;;;16.08;100.00;100288.72;4785036;29;20047;-91
2023/08/13 05:08:58;;;;;;;0.85;0.75;;;;;;;16.23;100.00;100309.19;4744256;29;20151;-91
2023/08/13 05:11:23;;;;;;;1.95;1.20;;;;;;;16.24;100.00;100294.75;4792078;29;20081;-91
2023/08/13 05:13:49;;;;;;;1.40;0.98;;;;;;;16.50;100.00;100309.13;4783458;29;20050;-91
2023/08/13 05:16:15;;;;;;;0.50;0.43;;;;;;;16.52;100.00;100301.03;4770703;29;20090;-91
2023/08/13 05:18:42;;;;;;;0.57;0.57;;;;;;;16.47;100.00;100281.28;4779014;29;20043;-91
2023/08/13 05:21:08;;;;;;;0.52;0.50;;;;;;;16.92;100.00;100328.00;4778014;29;20067;-91
2023/08/13 05:23:34;;;;;;;0.52;0.52;;;;;;;17.02;100.00;100309.91;4798592;29;20039;-90
2023/08/13 05:26:00;;;;;;;0.57;0.57;;;;;;;17.14;100.00;100322.94;4785617;29;20050;-91
2023/08/13 05:28:26;;;;;;;1.08;0.70;;;;;;;17.32;100.00;100328.41;4780068;29;20515;-91
2023/08/13 05:30:52;;;;;;;0.95;0.80;;;;;;;17.48;100.00;100330.03;4778269;29;20135;-91
2023/08/13 05:33:19;;;;;;;0.88;0.60;;;;;;;17.52;100.00;100319.41;4778713;29;20532;-91
2023/08/13 05:35:45;;;;;;;1.13;0.90;;;;;;;17.84;100.00;100329.00;4797613;29;20137;-91
2023/08/13 05:38:11;;;;;;;0.73;0.50;;;;;;;18.02;100.00;100326.06;4778497;29;20587;-91
2023/08/13 05:40:37;;;;;;;0.68;0.68;;;;;;;18.20;100.00;100325.13;4782733;29;20053;-91
2023/08/13 05:43:02;;;;;;;0.77;0.60;;;;;;;18.29;100.00;100323.00;4798192;29;20066;-91
2023/08/13 05:45:28;;;;;;;0.55;0.55;;;;;;;18.38;100.00;100317.28;4784285;29;20141;-90
2023/08/13 05:47:55;;;;;;;1.42;1.02;;;;;;;18.60;100.00;100328.94;4774365;29;20084;-91
2023/08/13 05:50:21;;;;;;;0.55;0.55;;;;;;;18.75;100.00;100317.69;4795559;29;20050;-91
2023/08/13 05:52:46;;;;;;;1.00;0.65;;;;;;;19.01;100.00;100331.88;4780928;29;20047;-92
2023/08/13 05:55:12;;;;;;;0.45;0.45;;;;;;;19.23;100.00;100351.13;4779240;29;20051;-91
2023/08/13 05:57:37;;;;;;;0.45;0.45;;;;;;;19.37;100.00;100339.81;4779159;29;20520;-92
2023/08/13 06:00:09;;;;;;;4.13;1.52;;;;;;;19.55;100.00;100336.78;4798681;29;20190;-91
2023/08/13 06:02:38;;;;;;;0.85;0.70;;;;;;;19.77;100.00;100346.78;4800367;29;20432;-92
2023/08/13 06:05:06;;;;;;;1.33;1.05;;;;;;;20.00;100.00;100351.41;4796281;29;20048;-91
2023/08/13 06:07:32;;;;;;;0.73;0.73;;;;;;;20.05;100.00;100345.06;4797411;29;20046;-91
2023/08/13 06:09:58;;;;;;;0.63;0.63;;;;;;;20.29;100.00;100356.13;4793663;29;20047;-92
2023/08/13 06:12:24;;;;;;;1.08;0.95;;;;;;;20.29;100.00;100348.44;4778537;29;20039;-91
2023/08/13 06:14:49;;;;;;;0.82;0.82;;;;;;;20.50;100.00;100365.28;4751176;29;20062;-90
2023/08/13 06:17:15;;;;;;;1.55;1.25;;;;;;;20.60;100.00;100361.03;4793616;29;20047;-91
2023/08/13 06:19:42;;;;;;;0.85;0.85;;;;;;;20.26;100.00;100340.94;4784047;29;20478;-91
2023/08/13 06:22:08;;;;;;;0.90;0.77;;;;;;;20.35;100.00;100374.63;4796614;29;20821;-93
2023/08/13 06:24:34;;;;;;;1.23;1.13;;;;;;;20.34;100.00;100364.59;4799641;29;20043;-92
2023/08/13 06:26:59;;;;;;;0.63;0.40;;;;;;;20.51;100.00;100349.91;4784849;29;20449;-91
2023/08/13 06:29:25;;;;;;;6.93;0.75;;;;;;;20.78;100.00;100358.63;4782258;29;20047;-91
2023/08/13 06:31:50;;;;;;;1.38;0.93;;;;;;;21.15;100.00;100364.31;4765376;29;20034;-93
2023/08/13 06:34:16;;;;;;;0.38;0.32;;;;;;;21.34;100.00;100354.22;4798755;29;20065;-93
2023/08/13 06:36:41;;;;;;;1.20;1.08;;;;;;;21.66;100.00;100357.72;4797501;29;20146;-93
2023/08/13 06:39:07;;;;;;;0.85;0.70;;;;;;;22.04;100.00;100369.72;4799878;29;20043;-91
2023/08/13 06:41:33;;;;;;;2.60;0.88;;;;;;;22.13;100.00;100361.00;4786614;29;20034;-93
2023/08/13 06:44:03;;;;;;;1.15;1.05;;;;;;;22.53;100.00;100385.22;4777596;29;20062;-94
2023/08/13 06:46:29;;;;;;;0.40;0.40;;;;;;;22.64;100.00;100360.59;4785665;29;20702;-92
2023/08/13 06:48:54;;;;;;;0.75;0.52;;;;;;;22.77;100.00;100362.91;4767513;29;20059;-93
2023/08/13 06:51:20;;;;;;;1.17;0.90;;;;;;;22.71;100.00;100377.06;4777114;29;20108;-93
2023/08/13 06:53:45;;;;;;;1.05;0.65;;;;;;;22.58;100.00;100378.81;4783719;29;20104;-93
2023/08/13 06:56:11;;;;;;;0.85;0.65;;;;;;;22.97;100.00;100395.88;4781795;29;20062;-93
2023/08/13 06:58:36;;;;;;;0.60;0.60;;;;;;;23.17;100.00;100368.03;4764704;29;20038;-93
2023/08/13 07:01:05;;;;;;;0.52;0.52;;;;;;;23.51;95.13;100385.00;4797009;29;20039;-93
2023/08/13 07:03:31;;;;;;;0.38;0.38;;;;;;;23.46;92.55;100388.63;4780557;29;20053;-92
2023/08/13 07:05:56;;;;;;;0.65;0.60;;;;;;;23.46;92.92;100388.63;4780965;29;20050;-93
2023/08/13 07:08:23;;;;;;;0.50;0.50;;;;;;;23.24;93.05;100372.44;4773877;29;20062;-93
2023/08/13 07:10:49;;;;;;;0.50;0.50;;;;;;;22.91;98.13;100390.19;4802563;29;20049;-92
2023/08/13 07:13:15;;;;;;;1.65;1.27;;;;;;;22.59;100.00;100386.03;4776683;29;20051;-93
2023/08/13 07:15:41;;;;;;;0.30;0.30;;;;;;;22.88;99.95;100394.06;4763824;29;20468;-93
2023/08/13 07:18:07;;;;;;;0.82;0.60;;;;;;;23.12;99.77;100399.19;4772350;29;20058;-93
2023/08/13 07:20:33;;;;;;;1.27;0.98;;;;;;;23.36;95.17;100378.84;4764562;30;20094;-93
2023/08/13 07:23:00;;;;;;;0.55;0.55;;;;;;;23.53;95.24;100376.78;4762438;29;20067;-92
2023/08/13 07:25:26;;;;;;;2.92;0.93;;;;;;;23.83;91.91;100389.03;4760441;29;20710;-92
2023/08/13 07:27:52;;;;;;;1.02;0.73;;;;;;;23.85;87.83;100380.78;4776441;29;21124;-92
2023/08/13 07:30:18;;;;;;;0.70;0.70;;;;;;;23.80;89.47;100384.41;4781215;29;20043;-92
2023/08/13 07:32:43;;;;;;;1.10;0.90;;;;;;;24.00;87.10;100375.56;4764042;29;20411;-92
2023/08/13 07:35:12;;;;;;;0.52;0.52;;;;;;;24.06;88.28;100390.47;4776490;29;20226;-93
2023/08/13 07:37:40;;;;;;;0.88;0.68;;;;;;;24.09;85.52;100366.00;4778037;29;20135;-94
2023/08/13 07:40:12;;;;;;;0.40;0.40;;;;;;;24.32;84.31;100361.00;4782732;29;20138;-89
2023/08/13 07:42:40;;;;;;;0.28;0.28;;;;;;;24.82;84.54;100386.19;4782628;29;20083;-90
2023/08/13 07:45:06;;;;;;;2.30;0.70;;;;;;;25.08;80.12;100387.28;4797697;29;20051;-91
2023/08/13 07:47:32;;;;;;;1.33;1.23;;;;;;;24.90;80.45;100373.00;4797444;29;20146;-91
2023/08/13 07:49:58;;;;;;;0.65;0.65;;;;;;;24.73;82.71;100355.31;4779544;29;20043;-95
2023/08/13 07:52:24;;;;;;;0.45;0.45;;;;;;;25.14;83.24;100377.94;4779591;29;20573;-94
2023/08/13 07:54:49;;;;;;;1.45;0.60;;;;;;;24.98;79.41;100366.22;4762962;29;20102;-95
2023/08/13 07:57:15;;;;;;;0.28;0.28;;;;;;;24.89;81.93;100375.06;4769563;29;20086;-95
2023/08/13 07:59:41;;;;;;;0.28;0.28;;;;;;;24.97;84.79;100383.78;4779127;29;20039;-96
2023/08/13 08:02:07;;;;;;;0.35;0.35;;;;;;;24.97;81.21;100356.16;4770068;29;20479;-95
2023/08/13 08:04:32;;;;;;;0.73;0.73;;;;;;;25.49;83.02;100370.09;4769463;29;20054;-95
2023/08/13 08:06:58;;;;;;;1.02;0.88;;;;;;;25.76;82.54;100356.91;4771348;29;20100;-95
2023/08/13 08:09:24;;;;;;;1.23;0.82;;;;;;;25.82;79.22;100351.16;4769799;29;20043;-95
2023/08/13 08:11:49;;;;;;;0.50;0.50;;;;;;;25.91;80.07;100365.78;4774127;29;20078;-95
2023/08/13 08:14:15;;;;;;;1.30;1.20;;;;;;;26.05;78.52;100380.81;4773040;29;20039;-94
2023/08/13 08:16:40;;;;;;;0.45;0.40;;;;;;;26.01;76.97;100357.63;4773768;29;20075;-95
2023/08/13 08:19:06;;;;;;;0.40;0.40;;;;;;;26.28;74.16;100352.91;4760051;29;20130;-96
2023/08/13 08:21:32;;;;;;;0.50;0.50;;;;;;;26.64;74.67;100379.78;4759789;29;20077;-95
2023/08/13 08:24:00;;;;;;;0.68;0.68;;;;;;;26.63;73.75;100375.38;4773710;29;20147;-95
2023/08/13 08:26:27;;;;;;;0.50;0.50;;;;;;;26.48;77.31;100371.50;4789127;29;20039;-96
2023/08/13 08:28:53;;;;;;;1.00;0.73;;;;;;;26.47;73.91;100345.13;4774596;29;20613;-95
2023/08/13 08:31:19;;;;;;;0.43;0.43;;;;;;;26.99;68.41;100346.63;4789551;29;20039;-96
2023/08/13 08:33:45;;;;;;;0.98;0.90;;;;;;;26.84;68.80;100362.16;4788179;29;20137;-95
2023/08/13 08:36:10;;;;;;;0.65;0.65;;;;;;;26.68;68.54;100366.00;4775470;29;20046;-95
2023/08/13 08:38:37;;;;;;;0.70;0.60;;;;;;;26.66;70.43;100382.84;4782289;29;20141;-96
2023/08/13 08:41:02;;;;;;;0.30;0.30;;;;;;;26.32;73.17;100342.75;4784435;29;20043;-96
2023/08/13 08:43:30;;;;;;;0.77;0.73;;;;;;;26.15;74.68;100341.44;4757623;29;20057;-96
2023/08/13 08:45:57;;;;;;;0.43;0.40;;;;;;;26.03;78.44;100346.50;4759156;29;20087;-95
2023/08/13 08:48:26;;;;;;;0.77;0.40;;;;;;;26.37;77.74;100366.72;4785323;29;20046;-96
2023/08/13 08:50:51;;;;;;;0.68;0.68;;;;;;;26.83;77.40;100351.28;4774810;29;20407;-96
2023/08/13 08:53:17;;;;;;;1.73;1.00;;;;;;;26.83;66.69;100346.34;4775137;29;20047;-95
2023/08/13 08:55:43;;;;;;;1.55;0.73;;;;;;;27.22;61.26;100345.69;4775540;29;20102;-96
2023/08/13 08:58:09;;;;;;;0.70;0.70;;;;;;;27.43;58.25;100334.41;4775178;29;20482;-96
2023/08/13 09:00:34;;;;;;;0.90;0.63;;;;;;;27.67;55.34;100325.66;4777428;29;20077;-95
2023/08/13 09:03:00;;;;;;;1.35;1.10;;;;;;;27.55;56.21;100330.06;4797484;29;20083;-96
2023/08/13 09:05:26;;;;;;;1.25;0.90;;;;;;;27.65;55.76;100351.13;4770250;29;20051;-94
2023/08/13 09:07:52;;;;;;;0.70;0.70;;;;;;;28.06;56.87;100355.44;4767942;29;20576;-95
2023/08/13 09:10:17;;;;;;;0.70;0.70;;;;;;;28.09;53.65;100340.13;4774841;29;20055;-95
2023/08/13 09:12:43;;;;;;;0.32;0.32;;;;;;;28.52;54.32;100346.09;4760321;29;20042;-96
2023/08/13 09:15:10;;;;;;;1.45;1.10;;;;;;;28.70;52.38;100341.56;4790430;29;20059;-96
2023/08/13 09:17:38;;;;;;;0.68;0.68;;;;;;;28.78;50.85;100321.66;4791832;29;20385;-96
2023/08/13 09:20:17;;;;;;;0.65;0.65;;;;;;;29.18;50.06;100360.06;4792212;29;20034;-95
2023/08/13 09:22:50;;;;;;;0.82;0.82;;;;;;;28.73;48.00;100340.44;4774129;29;20043;-96
2023/08/13 09:25:16;;;;;;;0.82;0.82;;;;;;;28.73;50.18;100318.38;4774303;29;20099;-96
2023/08/13 09:27:42;;;;;;;0.88;0.88;;;;;;;28.87;48.85;100346.88;4788950;29;20043;-96
2023/08/13 09:30:12;;;;;;;0.55;0.55;;;;;;;29.20;48.39;100340.25;4759699;29;20138;-95
2023/08/13 09:32:38;;;;;;;1.27;0.60;;;;;;;29.37;47.89;100366.31;4790415;29;20110;-96
2023/08/13 09:35:05;;;;;;;0.52;0.50;;;;;;;29.27;48.40;100328.16;4792597;29;20066;-96
2023/08/13 09:37:30;;;;;;;0.47;0.47;;;;;;;29.00;48.02;100346.75;4782977;29;20503;-95
2023/08/13 09:39:56;;;;;;;0.38;0.35;;;;;;;28.55;49.08;100362.13;4775701;29;20089;-96
2023/08/13 09:42:23;;;;;;;1.17;1.05;;;;;;;28.44;49.08;100333.84;4775509;29;20042;-96
2023/08/13 09:44:51;;;;;;;1.02;0.65;;;;;;;28.94;49.48;100346.16;4773533;29;20083;-96
2023/08/13 09:47:19;;;;;;;0.93;0.80;;;;;;;29.06;47.47;100313.91;4777749;29;20047;-96
2023/08/13 09:49:46;;;;;;;0.40;0.40;;;;;;;29.03;46.52;100332.16;4792920;29;20073;-96
2023/08/13 09:52:23;;;;;;;1.10;1.00;;;;;;;28.80;48.32;100310.44;4772936;29;20049;-95
2023/08/13 09:54:53;;;;;;;0.47;0.47;;;;;;;28.94;47.38;100329.03;4773822;29;20051;-96
2023/08/13 09:57:22;;;;;;;0.70;0.70;;;;;;;29.50;46.09;100365.47;4784865;29;20189;-96
2023/08/13 09:59:51;;;;;;;0.47;0.47;;;;;;;29.44;44.53;100319.88;4776787;29;20043;-95
2023/08/13 10:02:18;;;;;;;0.20;0.20;;;;;;;29.97;45.08;100362.31;4795648;29;20465;-96
2023/08/13 10:04:44;;;;;;;0.63;0.63;;;;;;;29.99;42.35;100325.34;4807521;29;20073;-96
2023/08/13 10:07:11;;;;;;;0.57;0.57;;;;;;;30.04;42.43;100348.06;4796077;29;20038;-96
2023/08/13 10:09:37;;;;;;;0.50;0.50;;;;;;;29.32;42.17;100329.34;4827166;29;20460;-96
2023/08/13 10:12:05;;;;;;;1.38;1.27;;;;;;;29.07;42.99;100337.50;4813199;29;20064;-96
2023/08/13 10:14:31;;;;;;;5.20;1.17;;;;;;;29.21;45.11;100333.22;4826477;29;20118;-95
2023/08/13 10:17:06;;;;;;;0.85;0.73;;;;;;;29.44;43.62;100319.88;4809818;29;20641;-95
2023/08/13 10:19:38;;;;;;;1.00;0.93;;;;;;;29.96;45.31;100335.06;4791774;29;20042;-95
2023/08/13 10:22:07;;;;;;;0.70;0.45;;;;;;;29.98;43.61;100318.09;4839079;29;20053;-96
2023/08/13 10:24:33;;;;;;;0.80;0.57;;;;;;;30.39;42.92;100317.06;4816089;29;20057;-96
2023/08/13 10:26:59;;;;;;;2.67;1.63;;;;;;;30.55;41.44;100345.19;4808696;29;20156;-96
2023/08/13 10:29:34;;;;;;;0.40;0.40;;;;;;;30.01;40.38;100348.41;4809090;29;20137;-96
2023/08/13 10:32:01;;;;;;;0.70;0.70;;;;;;;29.55;39.31;100324.53;4811253;29;20085;-95
2023/08/13 10:34:50;;;;;;;0.65;0.60;;;;;;;29.73;41.64;100357.00;4807433;29;20129;-96
2023/08/13 10:37:20;;;;;;;0.80;0.73;;;;;;;30.01;41.75;100354.91;4794129;29;20078;-96
2023/08/13 10:40:08;;;;;;;0.43;0.40;;;;;;;30.02;41.13;100318.50;4837746;29;20076;-96
2023/08/13 10:42:36;;;;;;;2.78;0.65;;;;;;;30.62;40.60;100354.34;4807770;29;20137;-96
2023/08/13 10:45:06;;;;;;;0.75;0.70;;;;;;;30.60;38.89;100351.31;4806143;29;20042;-94
2023/08/13 10:47:58;;;;;;;1.60;1.15;;;;;;;30.02;37.52;100322.13;4820405;29;20046;-96
2023/08/13 10:50:38;;;;;;;0.85;0.85;;;;;;;29.57;37.65;100356.16;4804520;29;20046;-95
2023/08/13 10:53:07;;;;;;;1.20;0.75;;;;;;;29.73;40.25;100354.16;4807716;29;20073;-95
2023/08/13 10:55:36;;;;;;;0.88;0.60;;;;;;;30.00;41.01;100318.31;4837040;29;20086;-95
2023/08/13 10:58:01;;;;;;;1.98;1.35;;;;;;;30.19;39.62;100313.03;4800569;29;20354;-96
2023/08/13 11:00:27;;;;;;;0.40;0.40;;;;;;;30.63;38.26;100341.56;4819556;29;20530;-96
2023/08/13 11:03:16;;;;;;;0.63;0.63;;;;;;;30.27;36.40;100315.91;4815862;29;20132;-95
2023/08/13 11:05:46;;;;;;;0.50;0.50;;;;;;;30.55;38.21;100328.00;4773175;29;20211;-95
2023/08/13 11:08:20;;;;;;;0.57;0.47;;;;;;;30.42;39.93;100335.97;4774646;29;20148;-96
2023/08/13 11:10:47;;;;;;;1.10;0.88;;;;;;;30.26;39.45;100300.81;4803572;29;20050;-96
2023/08/13 11:13:13;;;;;;;0.43;0.43;;;;;;;30.31;37.72;100342.81;4768743;29;20046;-96
2023/08/13 11:15:39;;;;;;;4.40;1.20;;;;;;;29.91;38.19;100339.63;4783861;29;20043;-95
2023/08/13 11:18:08;;;;;;;0.95;0.95;;;;;;;29.60;38.61;100315.03;4768629;29;20133;-95
2023/08/13 11:20:34;;;;;;;0.63;0.63;;;;;;;29.98;39.13;100338.13;4774146;29;20057;-96
2023/08/13 11:23:03;;;;;;;0.50;0.50;;;;;;;30.21;38.18;100321.03;4776280;29;20051;-95